createdAt,value
2023-01-02T00:00:19.134Z,10.80
2023-01-02T00:02:49.929Z,10.80
2023-01-02T00:05:19.166Z,10.90
2023-01-02T00:07:48.285Z,10.90
2023-01-02T00:10:19.609Z,10.90
2023-01-02T00:12:48.902Z,10.90
2023-01-02T00:15:17.873Z,11.00
2023-01-02T00:17:47.161Z,11.00
2023-01-02T00:20:16.159Z,11.00
2023-01-02T00:22:44.962Z,11.00
2023-01-02T00:25:14.495Z,11.00
2023-01-02T00:27:44.866Z,11.00
2023-01-02T00:30:14.964Z,11.00
2023-01-02T00:32:43.697Z,11.00
2023-01-02T00:35:13.105Z,11.00
2023-01-02T00:38:00.830Z,11.00
2023-01-02T00:40:29.921Z,11.00
2023-01-02T00:43:00.295Z,11.00
2023-01-02T00:45:29.550Z,11.00
2023-01-02T00:47:58.707Z,11.00
2023-01-02T00:50:28.237Z,11.00
2023-01-02T00:52:57.837Z,11.00
2023-01-02T00:55:27.052Z,11.10
2023-01-02T00:57:56.110Z,11.10
2023-01-02T01:00:26.361Z,11.10
2023-01-02T01:02:59.158Z,11.10
2023-01-02T01:05:29.382Z,11.20
2023-01-02T01:08:00.644Z,11.20
2023-01-02T01:10:30.137Z,11.20
2023-01-02T01:13:00.116Z,11.20
2023-01-02T01:15:30.452Z,11.30
2023-01-02T01:17:59.875Z,11.30
2023-01-02T01:21:06.193Z,11.40
2023-01-02T01:24:29.578Z,11.40
2023-01-02T01:27:36.017Z,11.40
2023-01-02T01:30:07.533Z,11.40
2023-01-02T01:32:38.671Z,11.40
2023-01-02T01:35:09.541Z,11.40
2023-01-02T01:37:40.396Z,11.40
2023-01-02T01:40:12.447Z,11.50
2023-01-02T01:42:41.300Z,11.50
2023-01-02T01:45:16.011Z,11.50
2023-01-02T01:47:51.238Z,11.50
2023-01-02T01:50:22.985Z,11.50
2023-01-02T01:52:56.198Z,11.50
2023-01-02T01:55:29.132Z,11.50
2023-01-02T01:58:35.443Z,11.50
2023-01-02T02:01:05.681Z,11.50
2023-01-02T02:03:37.527Z,11.50
2023-01-02T02:06:07.989Z,11.50
2023-01-02T02:08:43.957Z,11.50
2023-01-02T02:11:15.524Z,11.50
2023-01-02T02:13:44.551Z,11.50
2023-01-02T02:16:22.087Z,11.50
2023-01-02T02:27:12.138Z,11.50
2023-01-02T02:34:48.327Z,11.60
2023-01-02T02:37:29.300Z,11.60
2023-01-02T02:40:20.375Z,11.60
2023-01-02T02:43:01.960Z,11.60
2023-01-02T02:45:42.019Z,11.60
2023-01-02T02:48:18.330Z,11.60
2023-01-02T02:50:57.240Z,11.60
2023-01-02T02:53:33.913Z,11.60
2023-01-02T02:56:06.737Z,11.60
2023-01-02T02:58:37.786Z,11.60
2023-01-02T03:01:08.668Z,11.60
2023-01-02T03:03:37.992Z,11.60
2023-01-02T03:06:18.871Z,11.60
2023-01-02T03:09:00.684Z,11.60
2023-01-02T03:11:41.271Z,11.70
2023-01-02T03:14:16.193Z,11.70
2023-01-02T03:16:47.187Z,11.70
2023-01-02T03:19:21.765Z,11.80
2023-01-02T03:21:58.595Z,11.80
2023-01-02T03:25:22.630Z,11.80
2023-01-02T03:27:57.968Z,11.80
2023-01-02T03:30:27.844Z,11.90
2023-01-02T03:32:59.971Z,11.90
2023-01-02T03:35:33.739Z,11.90
2023-01-02T03:38:09.448Z,11.90
2023-01-02T03:40:43.064Z,11.90
2023-01-02T03:43:18.185Z,12.00
2023-01-02T03:45:50.444Z,12.00
2023-01-02T03:48:28.316Z,12.00
2023-01-02T03:50:59.676Z,12.00
2023-01-02T03:53:31.730Z,12.00
2023-01-02T03:56:13.151Z,12.00
2023-01-02T03:59:08.020Z,12.00
2023-01-02T04:02:02.428Z,12.10
2023-01-02T04:04:40.643Z,12.10
2023-01-02T04:07:16.728Z,12.10
2023-01-02T04:09:48.410Z,12.10
2023-01-02T04:12:24.447Z,12.10
2023-01-02T04:15:00.478Z,12.10
2023-01-02T04:17:33.577Z,12.10
2023-01-02T04:20:07.338Z,12.10
2023-01-02T04:22:41.573Z,12.10
2023-01-02T04:25:14.412Z,12.10
2023-01-02T04:27:50.366Z,12.10
2023-01-02T04:30:20.894Z,12.10
2023-01-02T04:32:50.572Z,12.20
2023-01-02T04:35:23.140Z,12.20
2023-01-02T04:37:53.324Z,12.20
2023-01-02T04:40:26.221Z,12.20
2023-01-02T04:42:59.349Z,12.20
2023-01-02T04:45:30.010Z,12.20
2023-01-02T04:48:00.667Z,12.20
2023-01-02T04:50:30.603Z,12.20
2023-01-02T04:56:40.484Z,12.10
2023-01-02T04:59:10.037Z,12.20
2023-01-02T05:01:43.221Z,12.20
2023-01-02T05:04:12.102Z,12.10
2023-01-02T05:06:41.904Z,12.10
2023-01-02T05:12:54.162Z,12.10
2023-01-02T05:15:23.510Z,12.10
2023-01-02T05:17:53.798Z,12.10
2023-01-02T05:20:22.554Z,12.10
2023-01-02T05:23:48.624Z,12.10
2023-01-02T05:26:35.959Z,12.20
2023-01-02T05:29:05.215Z,12.20
2023-01-02T05:31:53.088Z,12.20
2023-01-02T05:34:23.726Z,12.20
2023-01-02T05:36:52.509Z,12.20
2023-01-02T05:39:21.476Z,12.20
2023-01-02T05:41:50.090Z,12.20
2023-01-02T05:45:21.754Z,12.20
2023-01-02T05:47:50.639Z,12.20
2023-01-02T05:50:20.998Z,12.20
2023-01-02T05:52:49.976Z,12.20
2023-01-02T05:55:18.932Z,12.20
2023-01-02T05:57:47.772Z,12.20
2023-01-02T06:00:17.285Z,12.20
2023-01-02T06:02:48.325Z,12.20
2023-01-02T06:05:17.904Z,12.20
2023-01-02T06:07:48.252Z,12.20
2023-01-02T06:10:17.034Z,12.20
2023-01-02T06:12:45.896Z,12.30
2023-01-02T06:15:14.661Z,12.30
2023-01-02T06:17:43.450Z,12.30
2023-01-02T06:20:13.324Z,12.30
2023-01-02T06:22:42.813Z,12.30
2023-01-02T06:25:13.260Z,12.30
2023-01-02T06:27:41.994Z,12.30
2023-01-02T06:30:11.858Z,12.30
2023-01-02T06:32:41.323Z,12.30
2023-01-02T06:35:10.932Z,12.20
2023-01-02T06:37:44.375Z,12.20
2023-01-02T06:40:14.772Z,12.10
2023-01-02T06:42:44.972Z,12.10
2023-01-02T06:45:32.458Z,12.10
2023-01-02T06:48:01.304Z,12.00
2023-01-02T06:50:34.794Z,11.90
2023-01-02T06:53:04.133Z,11.60
2023-01-02T06:55:34.526Z,11.40
2023-01-02T06:58:09.191Z,11.00
2023-01-02T07:00:40.217Z,10.90
2023-01-02T07:03:08.934Z,10.70
2023-01-02T07:05:37.902Z,10.70
2023-01-02T07:08:07.991Z,10.60
2023-01-02T07:10:38.597Z,10.50
2023-01-02T07:13:07.652Z,10.40
2023-01-02T07:15:36.637Z,10.40
2023-01-02T07:18:05.606Z,10.30
2023-01-02T07:20:34.889Z,10.30
2023-01-02T07:23:04.119Z,10.30
2023-01-02T07:25:40.838Z,10.20
2023-01-02T07:28:15.529Z,10.20
2023-01-02T07:30:44.876Z,10.20
2023-01-02T07:33:13.912Z,10.20
2023-01-02T07:35:44.205Z,10.10
2023-01-02T07:38:13.401Z,10.10
2023-01-02T07:40:42.420Z,10.10
2023-01-02T07:43:11.237Z,10.00
2023-01-02T07:45:47.936Z,10.00
2023-01-02T07:48:19.083Z,9.90
2023-01-02T07:50:48.081Z,9.90
2023-01-02T07:56:02.281Z,9.90
2023-01-02T07:58:32.252Z,9.80
2023-01-02T08:01:07.901Z,9.80
2023-01-02T08:03:37.567Z,9.80
2023-01-02T08:06:08.705Z,9.90
2023-01-02T08:08:38.232Z,9.90
2023-01-02T08:11:08.329Z,9.90
2023-01-02T08:13:37.387Z,9.80
2023-01-02T08:16:10.415Z,9.80
2023-01-02T08:18:39.970Z,9.80
2023-01-02T08:21:09.913Z,9.80
2023-01-02T08:23:39.229Z,9.80
2023-01-02T08:26:10.023Z,9.80
2023-01-02T08:28:41.111Z,9.80
2023-01-02T08:31:15.659Z,9.70
2023-01-02T08:33:44.896Z,9.70
2023-01-02T08:36:14.732Z,9.60
2023-01-02T08:38:43.757Z,9.60
2023-01-02T08:41:12.546Z,9.50
2023-01-02T08:43:41.269Z,9.40
2023-01-02T08:46:12.331Z,9.40
2023-01-02T08:48:41.095Z,9.40
2023-01-02T08:51:09.744Z,9.40
2023-01-02T08:53:38.552Z,9.40
2023-01-02T08:56:22.477Z,9.40
2023-01-02T08:58:53.082Z,9.40
2023-01-02T09:01:24.240Z,9.40
2023-01-02T09:03:53.821Z,9.40
2023-01-02T09:06:24.170Z,9.50
2023-01-02T09:08:53.751Z,9.50
2023-01-02T09:11:25.000Z,9.50
2023-01-02T09:13:54.516Z,9.50
2023-01-02T09:16:24.723Z,9.50
2023-01-02T09:18:53.825Z,9.50
2023-01-02T09:21:22.475Z,9.50
2023-01-02T09:23:51.263Z,9.60
2023-01-02T09:26:20.359Z,9.60
2023-01-02T09:28:49.270Z,9.50
2023-01-02T09:31:19.191Z,9.60
2023-01-02T09:33:49.874Z,9.60
2023-01-02T09:36:20.513Z,9.60
2023-01-02T09:38:53.025Z,9.60
2023-01-02T09:41:33.608Z,9.60
2023-01-02T09:44:06.466Z,9.60
2023-01-02T09:46:41.828Z,9.50
2023-01-02T09:49:15.765Z,9.40
2023-01-02T09:51:45.491Z,9.40
2023-01-02T09:54:22.827Z,9.40
2023-01-02T09:57:00.670Z,9.40
2023-01-02T09:59:34.797Z,9.50
2023-01-02T10:02:18.175Z,9.50
2023-01-02T10:05:07.021Z,9.50
2023-01-02T10:07:42.333Z,9.60
2023-01-02T10:10:18.202Z,9.60
2023-01-02T10:12:58.565Z,9.60
2023-01-02T10:15:29.539Z,9.60
2023-01-02T10:18:05.379Z,9.50
2023-01-02T10:20:41.553Z,9.50
2023-01-02T10:23:14.528Z,9.40
2023-01-02T10:25:52.719Z,9.50
2023-01-02T10:28:29.481Z,9.50
2023-01-02T10:31:06.954Z,9.50
2023-01-02T10:33:45.631Z,9.50
2023-01-02T10:36:25.163Z,9.60
2023-01-02T10:38:55.355Z,9.60
2023-01-02T10:41:24.378Z,9.60
2023-01-02T10:43:56.923Z,9.60
2023-01-02T10:46:29.501Z,9.70
2023-01-02T10:48:59.569Z,9.70
2023-01-02T10:51:30.731Z,9.80
2023-01-02T10:54:06.201Z,9.70
2023-01-02T10:56:37.578Z,9.80
2023-01-02T10:59:17.501Z,9.80
2023-01-02T11:01:52.565Z,9.80
2023-01-02T11:04:24.920Z,9.80
2023-01-02T11:06:58.131Z,9.80
2023-01-02T11:09:28.896Z,9.80
2023-01-02T11:12:00.152Z,9.90
2023-01-02T11:14:33.299Z,9.90
2023-01-02T11:17:08.198Z,9.90
2023-01-02T11:19:42.802Z,9.90
2023-01-02T11:22:15.204Z,9.80
2023-01-02T11:24:59.861Z,9.80
2023-01-02T11:27:33.462Z,9.80
2023-01-02T11:30:09.814Z,9.70
2023-01-02T11:32:40.381Z,9.70
2023-01-02T11:35:35.184Z,9.80
2023-01-02T11:38:05.703Z,9.80
2023-01-02T11:40:34.893Z,9.80
2023-01-02T11:43:26.844Z,9.80
2023-01-02T11:45:56.989Z,9.80
2023-01-02T11:48:29.908Z,9.80
2023-01-02T11:51:00.827Z,9.80
2023-01-02T11:57:06.638Z,9.80
2023-01-02T11:59:44.241Z,9.90
2023-01-02T12:02:20.913Z,9.90
2023-01-02T12:04:51.723Z,10.00
2023-01-02T12:07:44.044Z,10.00
2023-01-02T12:10:44.258Z,10.00
2023-01-02T12:13:44.443Z,10.10
2023-01-02T12:16:29.055Z,10.20
2023-01-02T12:19:33.622Z,10.20
2023-01-02T12:22:16.540Z,10.10
2023-01-02T12:25:06.211Z,10.10
2023-01-02T12:28:01.373Z,10.10
2023-01-02T12:31:08.234Z,10.10
2023-01-02T12:33:46.516Z,10.10
2023-01-02T12:36:36.374Z,10.10
2023-01-02T12:39:38.960Z,10.10
2023-01-02T12:42:34.655Z,10.10
2023-01-02T12:45:05.080Z,10.10
2023-01-02T12:47:58.751Z,10.10
2023-01-02T12:50:56.812Z,10.00
2023-01-02T12:54:19.889Z,10.10
2023-01-02T12:57:02.849Z,10.10
2023-01-02T13:00:01.844Z,10.10
2023-01-02T13:03:08.140Z,10.10
2023-01-02T13:05:44.724Z,10.00
2023-01-02T13:08:20.224Z,10.00
2023-01-02T13:10:54.844Z,10.00
2023-01-02T13:13:28.156Z,10.00
2023-01-02T13:16:05.159Z,10.00
2023-01-02T13:19:00.218Z,10.00
2023-01-02T13:21:35.790Z,10.00
2023-01-02T13:24:05.846Z,10.00
2023-01-02T13:26:35.399Z,9.90
2023-01-02T13:29:25.945Z,9.90
2023-01-02T13:32:06.235Z,9.90
2023-01-02T13:34:40.953Z,9.90
2023-01-02T13:37:13.561Z,9.90
2023-01-02T13:39:49.807Z,9.80
2023-01-02T13:42:42.702Z,9.80
2023-01-02T13:45:15.478Z,9.80
2023-01-02T13:47:50.819Z,9.70
2023-01-02T13:50:24.877Z,9.70
2023-01-02T13:53:21.857Z,9.70
2023-01-02T13:56:05.351Z,9.70
2023-01-02T13:58:45.773Z,9.70
2023-01-02T14:01:43.723Z,9.70
2023-01-02T14:04:45.405Z,9.70
2023-01-02T14:07:48.796Z,9.70
2023-01-02T14:10:26.817Z,9.70
2023-01-02T14:13:00.740Z,9.60
2023-01-02T14:15:30.051Z,9.60
2023-01-02T14:18:04.942Z,9.60
2023-01-02T14:20:36.123Z,9.60
2023-01-02T14:23:08.868Z,9.60
2023-01-02T14:25:49.668Z,9.50
2023-01-02T14:28:24.860Z,9.50
2023-01-02T14:30:54.264Z,9.50
2023-01-02T14:33:33.175Z,9.50
2023-01-02T14:36:09.525Z,9.40
2023-01-02T14:38:43.484Z,9.40
2023-01-02T14:41:51.057Z,9.40
2023-01-02T14:44:20.760Z,9.40
2023-01-02T14:46:51.258Z,9.30
2023-01-02T14:49:27.113Z,9.30
2023-01-02T14:52:01.301Z,9.30
2023-01-02T14:54:40.578Z,9.30
2023-01-02T14:57:25.809Z,9.30
2023-01-02T14:59:55.368Z,9.30
2023-01-02T15:02:30.875Z,9.30
2023-01-02T15:05:07.524Z,9.30
2023-01-02T15:07:39.772Z,9.30
2023-01-02T15:10:14.272Z,9.20
2023-01-02T15:13:03.465Z,9.30
2023-01-02T15:15:36.641Z,9.20
2023-01-02T15:18:08.700Z,9.20
2023-01-02T15:20:37.571Z,9.20
2023-01-02T15:23:06.271Z,9.10
2023-01-02T15:25:39.315Z,9.20
2023-01-02T15:28:23.011Z,9.10
2023-01-02T15:31:01.005Z,9.10
2023-01-02T15:33:30.643Z,9.10
2023-01-02T15:36:02.824Z,9.10
2023-01-02T15:38:32.227Z,9.10
2023-01-02T15:41:02.360Z,9.10
2023-01-02T15:43:51.225Z,9.10
2023-01-02T15:46:20.956Z,9.00
2023-01-02T15:48:50.672Z,9.00
2023-01-02T15:51:40.516Z,9.00
2023-01-02T15:54:14.487Z,8.90
2023-01-02T15:56:44.758Z,8.80
2023-01-02T15:59:28.321Z,8.80
2023-01-02T16:01:57.407Z,8.80
2023-01-02T16:04:28.534Z,8.80
2023-01-02T16:06:58.897Z,8.80
2023-01-02T16:09:30.414Z,8.90
2023-01-02T16:12:03.209Z,8.80
2023-01-02T16:14:36.447Z,8.90
2023-01-02T16:17:06.953Z,8.90
2023-01-02T16:19:39.295Z,8.80
2023-01-02T16:22:18.724Z,8.90
2023-01-02T16:24:51.378Z,8.90
2023-01-02T16:27:28.286Z,8.90
2023-01-02T16:29:57.067Z,8.80
2023-01-02T16:32:29.010Z,8.80
2023-01-02T16:35:20.601Z,8.70
2023-01-02T16:37:54.761Z,8.70
2023-01-02T16:41:00.752Z,8.70
2023-01-02T16:43:37.995Z,8.60
2023-01-02T16:46:16.248Z,8.60
2023-01-02T16:48:45.810Z,8.60
2023-01-02T16:51:16.630Z,8.60
2023-01-02T16:53:46.107Z,8.50
2023-01-02T16:56:15.795Z,8.50
2023-01-02T16:58:45.981Z,8.50
2023-01-02T17:01:16.413Z,8.40
2023-01-02T17:03:45.719Z,8.40
2023-01-02T17:06:16.498Z,8.40
2023-01-02T17:08:45.169Z,8.50
2023-01-02T17:11:17.568Z,8.40
2023-01-02T17:13:47.692Z,8.40
2023-01-02T17:16:16.505Z,8.40
2023-01-02T17:18:45.239Z,8.30
2023-01-02T17:21:14.077Z,8.30
2023-01-02T17:23:43.068Z,8.30
2023-01-02T17:26:11.864Z,8.30
2023-01-02T17:28:40.682Z,8.40
2023-01-02T17:31:15.452Z,8.40
2023-01-02T17:33:44.580Z,8.40
2023-01-02T17:36:14.529Z,8.30
2023-01-02T17:38:43.294Z,8.20
2023-01-02T17:41:12.008Z,8.10
2023-01-02T17:44:01.610Z,8.00
2023-01-02T17:47:04.248Z,8.00
2023-01-02T17:49:21.035Z,7.80
2023-01-02T17:51:49.822Z,7.70
2023-01-02T17:54:19.766Z,7.70
2023-01-02T17:56:48.700Z,7.60
2023-01-02T17:59:19.311Z,7.60
2023-01-02T18:01:49.776Z,7.50
2023-01-02T18:04:19.154Z,7.40
2023-01-02T18:06:47.943Z,7.30
2023-01-02T18:09:16.907Z,7.30
2023-01-02T18:11:45.633Z,7.20
2023-01-02T18:14:18.909Z,7.10
2023-01-02T18:16:50.767Z,7.10
2023-01-02T18:19:24.221Z,7.20
2023-01-02T18:21:52.942Z,7.10
2023-01-02T18:24:26.778Z,7.00
2023-01-02T18:27:00.417Z,6.90
2023-01-02T18:29:29.454Z,6.80
2023-01-02T18:32:00.221Z,6.70
2023-01-02T18:34:47.723Z,6.70
2023-01-02T18:37:25.956Z,6.70
2023-01-02T18:39:55.641Z,6.60
2023-01-02T18:42:27.689Z,6.60
2023-01-02T18:45:00.151Z,6.60
2023-01-02T18:47:33.102Z,6.50
2023-01-02T18:50:24.207Z,6.50
2023-01-02T18:52:53.448Z,6.40
2023-01-02T18:55:27.389Z,6.40
2023-01-02T18:57:59.842Z,6.30
2023-01-02T19:00:30.747Z,6.30
2023-01-02T19:03:05.678Z,6.30
2023-01-02T19:05:36.610Z,6.30
2023-01-02T19:08:20.572Z,6.20
2023-01-02T19:10:51.414Z,6.20
2023-01-02T19:13:21.857Z,6.10
2023-01-02T19:15:52.022Z,6.00
2023-01-02T19:18:33.634Z,6.00
2023-01-02T19:21:28.279Z,6.00
2023-01-02T19:23:59.333Z,5.90
2023-01-02T19:26:33.340Z,5.80
2023-01-02T19:29:05.170Z,5.70
2023-01-02T19:31:42.521Z,5.70
2023-01-02T19:34:29.404Z,5.70
2023-01-02T19:37:10.217Z,5.70
2023-01-02T19:39:43.400Z,5.70
2023-01-02T19:42:22.138Z,5.70
2023-01-02T19:44:53.607Z,5.70
2023-01-02T19:47:25.148Z,5.70
2023-01-02T19:49:55.746Z,5.70
2023-01-02T19:52:25.976Z,5.70
2023-01-02T19:54:54.731Z,5.70
2023-01-02T19:57:25.041Z,5.70
2023-01-02T19:59:55.714Z,5.70
2023-01-02T20:02:25.213Z,5.60
2023-01-02T20:04:56.674Z,5.60
2023-01-02T20:07:27.143Z,5.50
2023-01-02T20:09:55.870Z,5.50
2023-01-02T20:12:40.556Z,5.40
2023-01-02T20:15:11.718Z,5.40
2023-01-02T20:17:43.621Z,5.30
2023-01-02T20:20:15.584Z,5.40
2023-01-02T20:22:45.062Z,5.30
2023-01-02T20:25:18.021Z,5.20
2023-01-02T20:27:46.980Z,5.20
2023-01-02T20:30:20.344Z,5.20
2023-01-02T20:32:52.734Z,5.30
2023-01-02T20:35:23.170Z,5.30
2023-01-02T20:37:52.058Z,5.30
2023-01-02T20:40:20.841Z,5.30
2023-01-02T20:42:49.720Z,5.30
2023-01-02T20:45:18.638Z,5.30
2023-01-02T20:47:47.446Z,5.20
2023-01-02T20:50:16.468Z,5.20
2023-01-02T20:52:46.915Z,5.20
2023-01-02T20:55:16.746Z,5.10
2023-01-02T20:57:48.481Z,5.10
2023-01-02T21:00:20.607Z,5.10
2023-01-02T21:02:49.601Z,5.00
2023-01-02T21:05:18.617Z,5.00
2023-01-02T21:07:49.058Z,5.00
2023-01-02T21:10:18.045Z,4.90
2023-01-02T21:13:04.482Z,4.90
2023-01-02T21:15:49.648Z,4.90
2023-01-02T21:18:20.506Z,4.80
2023-01-02T21:20:51.249Z,4.90
2023-01-02T21:23:22.759Z,4.80
2023-01-02T21:25:52.505Z,4.80
2023-01-02T21:28:22.588Z,4.70
2023-01-02T21:30:51.597Z,4.70
2023-01-02T21:33:21.800Z,4.60
2023-01-02T21:35:52.322Z,4.50
2023-01-02T21:38:24.130Z,4.40
2023-01-02T21:40:53.119Z,4.30
2023-01-02T21:43:22.429Z,4.30
2023-01-02T21:45:51.566Z,4.30
2023-01-02T21:48:20.469Z,4.30
2023-01-02T21:50:49.333Z,4.30
2023-01-02T21:53:17.992Z,4.20
2023-01-02T21:55:48.199Z,4.20
2023-01-02T21:58:16.928Z,4.10
2023-01-02T22:00:45.753Z,4.10
2023-01-02T22:03:14.616Z,4.10
2023-01-02T22:05:44.015Z,4.00
2023-01-02T22:08:12.706Z,4.00
2023-01-02T22:10:41.601Z,3.90
2023-01-02T22:13:11.708Z,4.00
2023-01-02T22:15:40.451Z,4.10
2023-01-02T22:18:09.284Z,4.10
2023-01-02T22:20:38.146Z,4.00
2023-01-02T22:23:06.998Z,4.10
2023-01-02T22:25:35.658Z,4.10
2023-01-02T22:28:04.617Z,4.30
2023-01-02T22:30:35.422Z,4.20
2023-01-02T22:33:04.839Z,4.30
2023-01-02T22:35:33.856Z,4.30
2023-01-02T22:38:02.658Z,4.30
2023-01-02T22:40:31.488Z,4.20
2023-01-02T22:43:02.677Z,4.20
2023-01-02T22:45:40.832Z,4.20
2023-01-02T22:48:18.218Z,4.30
2023-01-02T22:50:48.742Z,4.40
2023-01-02T22:53:22.059Z,4.40
2023-01-02T22:55:50.882Z,4.40
2023-01-02T22:58:20.257Z,4.30
2023-01-02T23:01:00.390Z,4.40
2023-01-02T23:03:30.731Z,4.30
2023-01-02T23:05:59.816Z,4.30
2023-01-02T23:08:28.647Z,4.30
2023-01-02T23:10:57.929Z,4.30
2023-01-02T23:13:26.854Z,4.30
2023-01-02T23:16:14.792Z,4.30
2023-01-02T23:19:01.221Z,4.30
2023-01-02T23:21:32.705Z,4.30
2023-01-02T23:24:01.864Z,4.30
2023-01-02T23:26:34.768Z,4.40
2023-01-02T23:29:07.147Z,4.30
2023-01-02T23:31:39.703Z,4.20
2023-01-02T23:34:12.092Z,4.20
2023-01-02T23:36:41.271Z,4.10
2023-01-02T23:39:12.166Z,4.10
2023-01-02T23:41:41.413Z,4.10
2023-01-02T23:44:11.145Z,4.20
2023-01-02T23:46:42.163Z,4.10
2023-01-02T23:49:12.229Z,4.10
2023-01-02T23:51:41.417Z,4.10
2023-01-02T23:54:12.277Z,4.10
2023-01-02T23:56:43.132Z,4.00
2023-01-02T23:59:13.560Z,4.00
